Time;durP1;ratioP1;P1;durP2;ratioP2;P2;SDS_P1;SDS_P2;PMS_P1;PMS_P2;Temp;Humidity;BMP_temperature;BMP_pressure;BME280_temperature;BME280_humidity;BME280_pressure;Samples;Min_cycle;Max_cycle;Signal;HPM_P1;HPM_P2
2021/10/24 00:01:24;;;;;;;;;;;11.80;99.90;;;;;;6127984;23;19913;-79
2021/10/24 00:03:49;;;;;;;;;;;11.90;99.90;;;;;;6129342;23;19909;-79
2021/10/24 00:06:15;;;;;;;;;;;11.80;99.90;;;;;;6128535;23;19905;-79
2021/10/24 00:08:41;;;;;;;;;;;11.80;99.90;;;;;;6128204;23;19960;-78
2021/10/24 00:11:07;;;;;;;;;;;11.70;99.90;;;;;;6128669;23;19913;-80
2021/10/24 00:13:32;;;;;;;;;;;11.70;99.90;;;;;;6126564;23;19905;-79
2021/10/24 00:15:59;;;;;;;;;;;11.60;99.90;;;;;;6128138;23;19931;-79
2021/10/24 00:18:25;;;;;;;;;;;11.50;99.90;;;;;;6135236;23;19905;-80
2021/10/24 00:20:51;;;;;;;;;;;11.60;99.90;;;;;;6139137;23;19916;-79
2021/10/24 00:23:17;;;;;;;;;;;11.40;99.90;;;;;;6133173;23;19904;-80
2021/10/24 00:25:43;;;;;;;;;;;11.40;99.90;;;;;;6134509;23;19912;-79
2021/10/24 00:28:08;;;;;;;;;;;11.40;99.90;;;;;;6133114;23;19908;-79
2021/10/24 00:30:35;;;;;;;;;;;11.30;99.90;;;;;;6133936;23;19913;-80
2021/10/24 00:33:04;;;;;;;;;;;11.30;99.90;;;;;;6133662;23;20163;-79
2021/10/24 00:35:30;;;;;;;;;;;11.40;99.90;;;;;;6133246;23;19909;-79
2021/10/24 00:37:55;;;;;;;;;;;11.30;99.90;;;;;;6133442;23;19929;-80
2021/10/24 00:40:21;;;;;;;;;;;11.30;99.90;;;;;;6133377;23;19915;-79
2021/10/24 00:42:49;;;;;;;;;;;11.30;99.90;;;;;;6132807;23;19912;-80
2021/10/24 00:45:14;;;;;;;;;;;11.30;99.90;;;;;;6134776;23;19920;-79
2021/10/24 00:47:40;;;;;;;;;;;11.30;99.90;;;;;;6135850;23;19905;-79
2021/10/24 00:50:06;;;;;;;;;;;11.40;99.90;;;;;;6133030;23;19912;-79
2021/10/24 00:52:32;;;;;;;;;;;11.30;99.90;;;;;;6135346;23;19984;-78
2021/10/24 00:54:58;;;;;;;;;;;11.30;99.90;;;;;;6132060;23;19976;-79
2021/10/24 00:57:24;;;;;;;;;;;11.30;99.90;;;;;;6132890;23;19905;-80
2021/10/24 00:59:49;;;;;;;;;;;11.20;99.90;;;;;;6135581;23;19905;-80
2021/10/24 01:02:15;;;;;;;;;;;11.20;99.90;;;;;;6135520;23;19986;-81
2021/10/24 01:04:41;;;;;;;;;;;11.30;99.90;;;;;;6135938;23;19905;-79
2021/10/24 01:07:07;;;;;;;;;;;11.30;99.90;;;;;;6135155;23;19908;-79
2021/10/24 01:09:33;;;;;;;;;;;11.30;99.90;;;;;;6134996;23;19916;-79
2021/10/24 01:11:59;;;;;;;;;;;11.20;99.90;;;;;;6134645;23;19960;-80
2021/10/24 01:14:26;;;;;;;;;;;11.20;99.90;;;;;;6110188;23;19905;-79
2021/10/24 01:16:52;;;;;;;;;;;11.20;99.90;;;;;;6137170;23;19916;-79
2021/10/24 01:19:19;;;;;;;;;;;11.20;99.90;;;;;;6144749;23;20190;-79
2021/10/24 01:21:45;;;;;;;;;;;11.20;99.90;;;;;;6146033;23;19909;-79
2021/10/24 01:24:11;;;;;;;;;;;11.20;99.90;;;;;;6137412;23;19912;-79
2021/10/24 01:26:37;;;;;;;;;;;11.20;99.90;;;;;;6136910;23;19915;-80
2021/10/24 01:29:04;;;;;;;;;;;11.30;99.90;;;;;;6135558;23;19905;-79
2021/10/24 01:31:30;;;;;;;;;;;11.30;99.90;;;;;;6111059;23;19905;-79
2021/10/24 01:33:55;;;;;;;;;;;11.30;99.90;;;;;;6137504;23;19905;-79
2021/10/24 01:36:21;;;;;;;;;;;11.30;99.90;;;;;;6134986;23;19920;-79
2021/10/24 01:38:50;;;;;;;;;;;11.30;99.90;;;;;;6135677;23;19905;-79
2021/10/24 01:41:18;;;;;;;;;;;11.30;99.90;;;;;;6136196;23;19905;-80
2021/10/24 01:43:46;;;;;;;;;;;11.40;99.90;;;;;;6135061;23;19905;-80
2021/10/24 01:46:12;;;;;;;;;;;11.40;99.90;;;;;;6135725;23;19955;-80
2021/10/24 01:48:38;;;;;;;;;;;11.40;99.90;;;;;;6108077;23;19904;-79
2021/10/24 01:51:04;;;;;;;;;;;11.40;99.90;;;;;;6134162;23;19909;-79
2021/10/24 01:53:31;;;;;;;;;;;11.40;99.90;;;;;;6134346;23;19905;-79
2021/10/24 01:55:57;;;;;;;;;;;11.30;99.90;;;;;;6108913;23;19935;-81
2021/10/24 01:58:23;;;;;;;;;;;11.30;99.90;;;;;;6107125;23;19937;-79
2021/10/24 02:00:49;;;;;;;;;;;11.30;99.90;;;;;;6106358;23;19909;-80
2021/10/24 02:03:16;;;;;;;;;;;11.30;99.90;;;;;;6132287;23;19909;-79
2021/10/24 02:05:42;;;;;;;;;;;11.30;99.90;;;;;;6132907;23;19912;-79
2021/10/24 02:08:08;;;;;;;;;;;11.30;99.90;;;;;;6132239;23;19904;-81
2021/10/24 02:10:34;;;;;;;;;;;11.30;99.90;;;;;;6108397;23;19979;-79
2021/10/24 02:13:00;;;;;;;;;;;11.40;99.90;;;;;;6134665;23;19920;-79
2021/10/24 02:15:26;;;;;;;;;;;11.30;99.90;;;;;;6106406;23;19905;-79
2021/10/24 02:17:52;;;;;;;;;;;11.30;99.90;;;;;;6132610;23;19980;-79
2021/10/24 02:20:18;;;;;;;;;;;11.40;99.90;;;;;;6132368;23;20330;-78
2021/10/24 02:22:43;;;;;;;;;;;11.40;99.90;;;;;;6134840;23;19912;-79
2021/10/24 02:25:09;;;;;;;;;;;11.30;99.90;;;;;;6133443;23;19916;-79
2021/10/24 02:27:35;;;;;;;;;;;11.30;99.90;;;;;;6134270;23;19912;-79
2021/10/24 02:30:01;;;;;;;;;;;11.30;99.90;;;;;;6132575;23;19912;-81
2021/10/24 02:32:27;;;;;;;;;;;11.30;99.90;;;;;;6135323;23;19905;-79
2021/10/24 02:34:53;;;;;;;;;;;11.30;99.90;;;;;;6109687;23;20313;-80
2021/10/24 02:37:19;;;;;;;;;;;11.30;99.90;;;;;;6135763;23;19983;-80
2021/10/24 02:39:44;;;;;;;;;;;11.40;99.90;;;;;;6135504;23;19988;-79
2021/10/24 02:42:10;;;;;;;;;;;11.30;99.90;;;;;;6136808;23;20030;-79
2021/10/24 02:44:36;;;;;;;;;;;11.30;99.90;;;;;;6136101;23;19905;-79
2021/10/24 02:47:02;;;;;;;;;;;11.40;99.90;;;;;;6133785;23;19905;-79
2021/10/24 02:49:27;;;;;;;;;;;11.40;99.90;;;;;;6134874;23;20333;-80
2021/10/24 02:51:54;;;;;;;;;;;11.40;99.90;;;;;;6108822;23;19958;-79
2021/10/24 02:54:20;;;;;;;;;;;11.40;99.90;;;;;;6134699;23;19912;-79
2021/10/24 02:56:46;;;;;;;;;;;11.30;99.90;;;;;;6133523;23;19905;-79
2021/10/24 02:59:12;;;;;;;;;;;11.40;99.90;;;;;;6134906;23;19940;-79
2021/10/24 03:01:38;;;;;;;;;;;11.30;99.90;;;;;;6135616;23;19905;-80
2021/10/24 03:04:04;;;;;;;;;;;11.40;99.90;;;;;;6109810;23;19940;-79
2021/10/24 03:06:30;;;;;;;;;;;11.40;99.90;;;;;;6135527;23;20337;-79
2021/10/24 03:08:56;;;;;;;;;;;11.40;99.90;;;;;;6134962;23;19916;-79
2021/10/24 03:11:21;;;;;;;;;;;11.40;99.90;;;;;;6133489;23;19952;-80
2021/10/24 03:13:47;;;;;;;;;;;11.40;99.90;;;;;;6133441;23;20266;-79
2021/10/24 03:16:13;;;;;;;;;;;11.50;99.90;;;;;;6137452;23;19911;-83
2021/10/24 03:18:39;;;;;;;;;;;11.50;99.90;;;;;;6133967;23;20326;-80
2021/10/24 03:21:05;;;;;;;;;;;11.40;99.90;;;;;;6133943;23;19954;-79
2021/10/24 03:23:31;;;;;;;;;;;11.40;99.90;;;;;;6133751;23;19912;-79
2021/10/24 03:25:56;;;;;;;;;;;11.40;99.90;;;;;;6107959;23;19904;-79
2021/10/24 03:28:22;;;;;;;;;;;11.50;99.90;;;;;;6133758;23;19905;-79
2021/10/24 03:30:48;;;;;;;;;;;11.50;99.90;;;;;;6132845;23;19919;-79
2021/10/24 03:33:14;;;;;;;;;;;11.40;99.90;;;;;;6134611;23;19905;-80
2021/10/24 03:35:39;;;;;;;;;;;11.50;99.90;;;;;;6137252;23;19936;-79
2021/10/24 03:38:05;;;;;;;;;;;11.50;99.90;;;;;;6115688;23;19905;-79
2021/10/24 03:40:31;;;;;;;;;;;11.50;99.90;;;;;;6145024;23;20269;-79
2021/10/24 03:42:56;;;;;;;;;;;11.50;99.90;;;;;;6136999;23;19905;-79
2021/10/24 03:45:22;;;;;;;;;;;11.50;99.90;;;;;;6135516;23;19905;-80
2021/10/24 03:47:48;;;;;;;;;;;11.50;99.90;;;;;;6133313;23;19972;-80
2021/10/24 03:50:14;;;;;;;;;;;11.50;99.90;;;;;;6134749;23;20285;-79
2021/10/24 03:52:39;;;;;;;;;;;11.40;99.90;;;;;;6134074;23;19909;-79
2021/10/24 03:55:11;;;;;;;;;;;11.50;99.90;;;;;;6137211;23;19905;-79
2021/10/24 03:57:37;;;;;;;;;;;11.50;99.90;;;;;;6137386;23;19905;-79
2021/10/24 04:00:03;;;;;;;;;;;11.50;99.90;;;;;;6147537;23;19911;-79
2021/10/24 04:02:29;;;;;;;;;;;11.40;99.90;;;;;;6145909;23;19909;-79
2021/10/24 04:04:55;;;;;;;;;;;11.40;99.90;;;;;;6146358;23;19905;-79
2021/10/24 04:07:21;;;;;;;;;;;11.40;99.90;;;;;;6144250;23;19929;-78
2021/10/24 04:09:47;;;;;;;;;;;11.50;99.90;;;;;;6130410;23;19909;-79
2021/10/24 04:12:12;;;;;;;;;;;11.40;99.90;;;;;;6132662;23;19916;-79
2021/10/24 04:14:38;;;;;;;;;;;11.50;99.90;;;;;;6133520;23;19908;-79
2021/10/24 04:17:04;;;;;;;;;;;11.40;99.90;;;;;;6142077;23;19913;-78
2021/10/24 04:19:30;;;;;;;;;;;11.50;99.90;;;;;;6143963;23;19955;-79
2021/10/24 04:21:56;;;;;;;;;;;11.50;99.90;;;;;;6143824;23;19952;-78
2021/10/24 04:24:21;;;;;;;;;;;11.40;99.90;;;;;;6116885;23;19916;-78
2021/10/24 04:26:47;;;;;;;;;;;11.40;99.90;;;;;;6146198;23;19904;-79
2021/10/24 04:29:13;;;;;;;;;;;11.50;99.90;;;;;;6133774;23;20241;-80
2021/10/24 04:31:39;;;;;;;;;;;11.40;99.90;;;;;;6133206;23;19932;-79
2021/10/24 04:34:05;;;;;;;;;;;11.40;99.90;;;;;;6132348;23;19968;-79
2021/10/24 04:36:30;;;;;;;;;;;11.30;99.90;;;;;;6128747;23;20328;-79
2021/10/24 04:38:56;;;;;;;;;;;11.30;99.90;;;;;;6103486;23;19912;-79
2021/10/24 04:41:31;;;;;;;;;;;11.30;99.90;;;;;;6104478;23;19996;-79
2021/10/24 04:43:56;;;;;;;;;;;11.30;99.90;;;;;;6107302;23;19933;-79
2021/10/24 04:46:22;;;;;;;;;;;11.20;99.90;;;;;;6133032;23;19909;-79
2021/10/24 04:48:48;;;;;;;;;;;11.20;99.90;;;;;;6131157;23;19909;-78
2021/10/24 04:51:14;;;;;;;;;;;11.20;99.90;;;;;;6131717;23;19908;-79
2021/10/24 04:53:40;;;;;;;;;;;11.20;99.90;;;;;;6133844;23;19912;-79
2021/10/24 04:56:06;;;;;;;;;;;11.20;99.90;;;;;;6131361;23;19905;-79
2021/10/24 04:58:32;;;;;;;;;;;11.30;99.90;;;;;;6131494;23;19905;-80
2021/10/24 05:00:57;;;;;;;;;;;11.30;99.90;;;;;;6107696;23;19905;-79
2021/10/24 05:03:23;;;;;;;;;;;11.30;99.90;;;;;;6106242;23;19905;-79
2021/10/24 05:05:49;;;;;;;;;;;11.20;99.90;;;;;;6132590;23;19912;-80
2021/10/24 05:08:24;;;;;;;;;;;11.20;99.90;;;;;;6106239;23;19905;-79
2021/10/24 05:10:50;;;;;;;;;;;11.10;99.90;;;;;;6132777;23;19909;-79
2021/10/24 05:13:16;;;;;;;;;;;11.10;99.90;;;;;;6132568;23;19905;-79
2021/10/24 05:15:42;;;;;;;;;;;11.20;99.90;;;;;;6133329;23;19905;-79
2021/10/24 05:18:08;;;;;;;;;;;11.20;99.90;;;;;;6131603;23;19905;-79
2021/10/24 05:20:33;;;;;;;;;;;11.20;99.90;;;;;;6132062;23;19946;-79
2021/10/24 05:22:59;;;;;;;;;;;11.30;99.90;;;;;;6130198;23;19999;-79
2021/10/24 05:25:25;;;;;;;;;;;11.20;99.90;;;;;;6105717;23;19905;-79
2021/10/24 05:27:54;;;;;;;;;;;11.20;99.90;;;;;;6106474;23;19909;-79
2021/10/24 05:30:21;;;;;;;;;;;11.30;99.90;;;;;;6131911;23;19909;-79
2021/10/24 05:32:47;;;;;;;;;;;11.30;99.90;;;;;;6132281;23;19905;-79
2021/10/24 05:35:13;;;;;;;;;;;11.30;99.90;;;;;;6106039;23;20285;-81
2021/10/24 05:37:38;;;;;;;;;;;11.30;99.90;;;;;;6131843;23;20257;-79
2021/10/24 05:40:04;;;;;;;;;;;11.30;99.90;;;;;;6106587;23;19932;-79
2021/10/24 05:42:30;;;;;;;;;;;11.30;99.90;;;;;;6132227;23;19905;-79
2021/10/24 05:44:56;;;;;;;;;;;11.30;99.90;;;;;;6133801;23;19949;-79
2021/10/24 05:47:22;;;;;;;;;;;11.30;99.90;;;;;;6133127;23;19916;-79
2021/10/24 05:49:49;;;;;;;;;;;11.30;99.90;;;;;;6133728;23;19913;-79
2021/10/24 05:52:16;;;;;;;;;;;11.30;99.90;;;;;;6141252;23;19904;-79
2021/10/24 05:54:41;;;;;;;;;;;11.30;99.90;;;;;;6115444;23;20350;-79
2021/10/24 05:57:07;;;;;;;;;;;11.30;99.90;;;;;;6134090;23;19905;-79
2021/10/24 05:59:33;;;;;;;;;;;11.30;99.90;;;;;;6132807;23;19964;-78
2021/10/24 06:01:59;;;;;;;;;;;11.30;99.90;;;;;;6134456;23;19956;-79
2021/10/24 06:04:24;;;;;;;;;;;11.30;99.90;;;;;;6133911;23;19905;-79
2021/10/24 06:06:50;;;;;;;;;;;11.40;99.90;;;;;;6133701;23;19912;-79
2021/10/24 06:09:16;;;;;;;;;;;11.30;99.90;;;;;;6134858;23;19988;-79
2021/10/24 06:11:55;;;;;;;;;;;11.30;99.90;;;;;;6134965;23;19932;-79
2021/10/24 06:14:21;;;;;;;;;;;11.30;99.90;;;;;;6132562;23;19912;-79
2021/10/24 06:16:47;;;;;;;;;;;11.30;99.90;;;;;;6133677;23;19905;-79
2021/10/24 06:19:15;;;;;;;;;;;11.30;99.90;;;;;;6134352;23;19905;-80
2021/10/24 06:21:41;;;;;;;;;;;11.40;99.90;;;;;;6135355;23;19983;-79
2021/10/24 06:24:10;;;;;;;;;;;11.40;99.90;;;;;;6135602;23;19913;-79
2021/10/24 06:26:36;;;;;;;;;;;11.40;99.90;;;;;;6137204;23;20295;-80
2021/10/24 06:29:01;;;;;;;;;;;11.50;99.90;;;;;;6136790;23;20222;-80
2021/10/24 06:31:27;;;;;;;;;;;11.50;99.90;;;;;;6134666;23;19962;-79
2021/10/24 06:33:53;;;;;;;;;;;11.50;99.90;;;;;;6135894;23;19935;-80
2021/10/24 06:36:18;;;;;;;;;;;11.60;99.90;;;;;;6135955;23;19944;-79
2021/10/24 06:38:44;;;;;;;;;;;11.60;99.90;;;;;;6135456;23;20298;-79
2021/10/24 06:41:10;;;;;;;;;;;11.70;99.90;;;;;;6108497;23;20385;-80
2021/10/24 06:43:36;;;;;;;;;;;11.70;99.90;;;;;;6134105;23;19945;-79
2021/10/24 06:46:02;;;;;;;;;;;11.70;99.90;;;;;;6134498;23;19905;-79
2021/10/24 06:48:27;;;;;;;;;;;11.80;99.90;;;;;;6131965;23;19948;-79
2021/10/24 06:50:53;;;;;;;;;;;11.90;99.90;;;;;;6132130;23;19920;-78
2021/10/24 06:53:19;;;;;;;;;;;11.90;99.90;;;;;;6130777;23;19909;-79
2021/10/24 06:55:47;;;;;;;;;;;12.00;99.90;;;;;;6132701;23;19936;-79
2021/10/24 06:58:13;;;;;;;;;;;11.90;99.90;;;;;;6132866;23;20284;-80
2021/10/24 07:00:38;;;;;;;;;;;11.90;99.90;;;;;;6130364;23;19909;-79
2021/10/24 07:03:04;;;;;;;;;;;11.90;99.90;;;;;;6128966;23;19976;-78
2021/10/24 07:05:31;;;;;;;;;;;12.00;99.90;;;;;;6127712;23;19909;-79
2021/10/24 07:07:56;;;;;;;;;;;12.10;99.90;;;;;;6135540;23;19960;-81
2021/10/24 07:10:22;;;;;;;;;;;12.20;99.90;;;;;;6137238;23;20277;-79
2021/10/24 07:12:51;;;;;;;;;;;12.20;99.90;;;;;;6138197;23;19909;-79
2021/10/24 07:15:17;;;;;;;;;;;12.30;99.90;;;;;;6139553;23;19905;-79
2021/10/24 07:17:43;;;;;;;;;;;12.30;99.90;;;;;;6112273;23;19909;-79
2021/10/24 07:20:09;;;;;;;;;;;12.30;99.90;;;;;;6138708;23;19909;-79
2021/10/24 07:22:35;;;;;;;;;;;12.40;99.90;;;;;;6134630;23;19916;-74
2021/10/24 07:25:01;;;;;;;;;;;12.50;99.90;;;;;;6127305;23;19976;-79
2021/10/24 07:27:26;;;;;;;;;;;12.50;99.90;;;;;;6126663;23;19927;-76
2021/10/24 07:29:52;;;;;;;;;;;12.60;99.90;;;;;;6126245;23;20396;-76
2021/10/24 07:32:18;;;;;;;;;;;12.70;99.90;;;;;;6100870;23;19979;-75
2021/10/24 07:34:44;;;;;;;;;;;12.70;99.90;;;;;;6100516;23;19966;-78
2021/10/24 07:37:10;;;;;;;;;;;12.70;99.90;;;;;;6125501;23;20298;-75
2021/10/24 07:39:35;;;;;;;;;;;12.80;99.90;;;;;;6125919;23;19909;-74
2021/10/24 07:42:01;;;;;;;;;;;12.70;99.90;;;;;;6126146;23;19916;-76
2021/10/24 07:44:27;;;;;;;;;;;12.90;99.90;;;;;;6126259;23;19978;-76
2021/10/24 07:46:54;;;;;;;;;;;12.90;99.90;;;;;;6126008;23;20326;-75
2021/10/24 07:49:22;;;;;;;;;;;13.00;99.90;;;;;;6131661;23;19912;-77
2021/10/24 07:51:47;;;;;;;;;;;13.10;99.90;;;;;;6131740;23;20227;-77
2021/10/24 07:54:13;;;;;;;;;;;13.10;99.90;;;;;;6131885;23;19912;-77
2021/10/24 07:56:39;;;;;;;;;;;13.10;99.90;;;;;;6103433;23;19909;-77
2021/10/24 07:59:05;;;;;;;;;;;13.10;99.90;;;;;;6128786;23;19944;-77
2021/10/24 08:01:31;;;;;;;;;;;13.10;99.90;;;;;;6129096;23;19972;-76
2021/10/24 08:03:57;;;;;;;;;;;13.30;99.90;;;;;;6128725;23;20288;-76
2021/10/24 08:06:24;;;;;;;;;;;13.30;99.90;;;;;;6129281;23;19936;-77
2021/10/24 08:08:50;;;;;;;;;;;13.20;99.90;;;;;;6127538;23;20301;-77
2021/10/24 08:11:15;;;;;;;;;;;13.20;99.90;;;;;;6129933;23;19998;-76
2021/10/24 08:13:41;;;;;;;;;;;13.30;99.90;;;;;;6131972;23;19928;-78
2021/10/24 08:16:06;;;;;;;;;;;13.20;99.90;;;;;;6106742;23;19909;-78
2021/10/24 08:18:32;;;;;;;;;;;13.20;99.90;;;;;;6132265;23;19905;-78
2021/10/24 08:20:58;;;;;;;;;;;13.20;99.90;;;;;;6131612;23;19905;-77
2021/10/24 08:23:25;;;;;;;;;;;13.20;99.90;;;;;;6104867;23;20352;-77
2021/10/24 08:25:51;;;;;;;;;;;13.40;99.90;;;;;;6132568;23;20044;-77
2021/10/24 08:28:16;;;;;;;;;;;13.50;99.90;;;;;;6101394;23;19909;-75
2021/10/24 08:30:42;;;;;;;;;;;13.60;99.90;;;;;;6125646;23;19913;-74
2021/10/24 08:33:08;;;;;;;;;;;13.60;99.90;;;;;;6125786;23;19958;-75
2021/10/24 08:35:33;;;;;;;;;;;13.80;99.90;;;;;;6125611;23;19909;-76
2021/10/24 08:37:59;;;;;;;;;;;13.90;99.90;;;;;;6125559;23;20264;-75
2021/10/24 08:40:27;;;;;;;;;;;14.00;99.90;;;;;;6100597;23;19905;-76
2021/10/24 08:42:58;;;;;;;;;;;13.90;99.90;;;;;;6126436;23;19980;-75
2021/10/24 08:45:24;;;;;;;;;;;14.10;99.90;;;;;;6126814;23;19905;-77
2021/10/24 08:47:50;;;;;;;;;;;14.10;99.90;;;;;;6126410;23;19915;-76
2021/10/24 08:50:15;;;;;;;;;;;14.10;99.90;;;;;;6127166;23;20331;-76
2021/10/24 08:52:43;;;;;;;;;;;14.20;99.90;;;;;;6126377;23;20222;-77
2021/10/24 08:55:09;;;;;;;;;;;14.20;99.90;;;;;;6100674;23;19913;-76
2021/10/24 08:57:34;;;;;;;;;;;14.20;99.90;;;;;;6124886;23;19979;-77
2021/10/24 09:00:01;;;;;;;;;;;14.20;99.90;;;;;;6099858;23;19911;-76
2021/10/24 09:02:45;;;;;;;;;;;14.20;99.90;;;;;;6125325;23;19912;-77
2021/10/24 09:05:25;;;;;;;;;;;14.10;99.90;;;;;;6127345;23;19905;-76
2021/10/24 09:07:54;;;;;;;;;;;14.30;99.90;;;;;;6128508;23;20321;-76
2021/10/24 09:10:39;;;;;;;;;;;14.40;99.90;;;;;;6125884;23;19944;-76
2021/10/24 09:13:06;;;;;;;;;;;14.40;99.90;;;;;;6100741;23;19950;-77
2021/10/24 09:15:45;;;;;;;;;;;14.30;99.90;;;;;;6126431;23;19905;-77
2021/10/24 09:18:11;;;;;;;;;;;14.40;99.90;;;;;;6127028;23;19905;-76
2021/10/24 09:20:37;;;;;;;;;;;14.50;99.90;;;;;;6100755;23;20249;-75
2021/10/24 09:23:06;;;;;;;;;;;14.50;99.90;;;;;;6126944;23;19956;-77
2021/10/24 09:25:32;;;;;;;;;;;14.60;99.90;;;;;;6100543;23;19960;-77
2021/10/24 09:28:00;;;;;;;;;;;14.50;99.90;;;;;;6126172;23;19908;-76
2021/10/24 09:30:34;;;;;;;;;;;14.50;99.90;;;;;;6125885;23;20329;-77
2021/10/24 09:33:10;;;;;;;;;;;14.60;99.90;;;;;;6126293;23;20215;-76
2021/10/24 09:35:46;;;;;;;;;;;14.70;99.90;;;;;;6124960;23;19909;-77
2021/10/24 09:38:17;;;;;;;;;;;14.80;99.90;;;;;;6130235;23;19912;-76
2021/10/24 09:40:47;;;;;;;;;;;14.80;99.90;;;;;;6131870;23;19944;-77
2021/10/24 09:43:19;;;;;;;;;;;14.90;99.90;;;;;;6100563;23;19909;-77
2021/10/24 09:45:46;;;;;;;;;;;14.90;99.90;;;;;;6124979;23;20358;-77
2021/10/24 09:48:13;;;;;;;;;;;14.90;99.90;;;;;;6126123;23;19909;-77
2021/10/24 09:50:40;;;;;;;;;;;15.00;99.90;;;;;;6125963;23;19913;-76
2021/10/24 09:53:16;;;;;;;;;;;15.10;99.90;;;;;;6100454;23;20219;-77
2021/10/24 09:55:42;;;;;;;;;;;15.20;99.90;;;;;;6125636;23;19915;-76
2021/10/24 09:58:08;;;;;;;;;;;15.20;99.90;;;;;;6125569;23;19908;-77
2021/10/24 10:00:34;;;;;;;;;;;15.40;99.90;;;;;;6125903;23;19905;-77
2021/10/24 10:03:00;;;;;;;;;;;15.50;99.90;;;;;;6123943;23;19944;-77
2021/10/24 10:05:27;;;;;;;;;;;15.50;99.90;;;;;;6125450;23;19909;-77
2021/10/24 10:07:53;;;;;;;;;;;15.50;99.90;;;;;;6125382;23;19909;-76
2021/10/24 10:10:21;;;;;;;;;;;15.60;99.90;;;;;;6125806;23;19952;-77
2021/10/24 10:12:47;;;;;;;;;;;15.50;99.90;;;;;;6126746;23;20005;-77
2021/10/24 10:15:13;;;;;;;;;;;15.20;99.90;;;;;;6100074;23;19905;-77
2021/10/24 10:17:39;;;;;;;;;;;15.20;99.90;;;;;;6125645;23;20325;-78
2021/10/24 10:20:21;;;;;;;;;;;15.20;99.90;;;;;;6126411;23;19929;-77
2021/10/24 10:23:06;;;;;;;;;;;15.20;99.90;;;;;;6126874;23;19905;-76
2021/10/24 10:25:33;;;;;;;;;;;15.20;99.90;;;;;;6128317;23;19957;-75
2021/10/24 10:27:59;;;;;;;;;;;15.30;99.90;;;;;;6127145;23;19913;-77
2021/10/24 10:30:45;;;;;;;;;;;15.30;99.90;;;;;;6127617;23;19943;-76
2021/10/24 10:33:33;;;;;;;;;;;15.30;99.90;;;;;;6126373;23;19912;-77
2021/10/24 10:36:03;;;;;;;;;;;15.20;99.90;;;;;;6125905;23;19924;-77
2021/10/24 10:38:39;;;;;;;;;;;15.30;99.90;;;;;;6126631;23;19916;-77
2021/10/24 10:41:07;;;;;;;;;;;15.30;99.90;;;;;;6126944;23;19908;-77
2021/10/24 10:43:33;;;;;;;;;;;15.40;99.90;;;;;;6127923;23;20336;-77
2021/10/24 10:46:03;;;;;;;;;;;15.50;99.90;;;;;;6128850;23;19909;-77
2021/10/24 10:48:30;;;;;;;;;;;15.50;99.90;;;;;;6129040;23;19963;-77
2021/10/24 10:51:01;;;;;;;;;;;15.30;99.90;;;;;;6103196;23;19952;-77
2021/10/24 10:53:32;;;;;;;;;;;15.40;99.90;;;;;;6129243;23;20317;-80
2021/10/24 10:56:01;;;;;;;;;;;15.40;99.90;;;;;;6128753;23;20285;-77
2021/10/24 10:58:33;;;;;;;;;;;15.40;99.90;;;;;;6129345;23;20297;-77
2021/10/24 11:00:59;;;;;;;;;;;15.50;99.90;;;;;;6128237;23;19952;-76
2021/10/24 11:03:41;;;;;;;;;;;15.70;99.90;;;;;;6132073;23;19905;-76
2021/10/24 11:06:10;;;;;;;;;;;15.80;99.90;;;;;;6129290;23;19905;-77
2021/10/24 11:08:47;;;;;;;;;;;15.90;99.90;;;;;;6129740;23;19940;-77
2021/10/24 11:11:13;;;;;;;;;;;15.90;99.90;;;;;;6102595;23;19909;-77
2021/10/24 11:13:38;;;;;;;;;;;16.00;99.90;;;;;;6102902;23;19908;-77
2021/10/24 11:16:23;;;;;;;;;;;15.90;99.90;;;;;;6128260;23;19912;-77
2021/10/24 11:18:48;;;;;;;;;;;15.80;99.90;;;;;;6126039;23;20267;-80
2021/10/24 11:21:25;;;;;;;;;;;15.90;99.90;;;;;;6127468;23;19940;-77
2021/10/24 11:23:54;;;;;;;;;;;15.70;99.90;;;;;;6127730;23;19905;-77
2021/10/24 11:26:20;;;;;;;;;;;15.80;99.90;;;;;;6128566;23;19916;-77
2021/10/24 11:28:46;;;;;;;;;;;15.80;99.90;;;;;;6125744;23;19964;-76
2021/10/24 11:31:17;;;;;;;;;;;15.70;99.90;;;;;;6129020;23;19920;-76
2021/10/24 11:33:43;;;;;;;;;;;15.80;99.90;;;;;;6128147;23;19905;-79
2021/10/24 11:36:09;;;;;;;;;;;15.80;99.90;;;;;;6127596;23;19917;-77
2021/10/24 11:38:35;;;;;;;;;;;15.90;99.90;;;;;;6128503;23;19912;-77
2021/10/24 11:41:05;;;;;;;;;;;16.10;99.90;;;;;;6103502;23;19909;-76
2021/10/24 11:43:33;;;;;;;;;;;16.10;99.90;;;;;;6102347;23;19948;-77
2021/10/24 11:46:03;;;;;;;;;;;16.00;99.90;;;;;;6127651;23;19916;-77
2021/10/24 11:48:29;;;;;;;;;;;16.10;99.90;;;;;;6135149;23;19905;-79
2021/10/24 11:51:07;;;;;;;;;;;16.20;99.90;;;;;;6128509;23;19916;-77
2021/10/24 11:53:42;;;;;;;;;;;16.20;99.90;;;;;;6131161;23;19911;-77
2021/10/24 11:56:08;;;;;;;;;;;16.40;99.90;;;;;;6133473;23;19905;-77
2021/10/24 12:01:06;;;;;;;;;;;16.40;99.90;;;;;;6133862;23;19916;-77
2021/10/24 12:03:32;;;;;;;;;;;16.50;99.90;;;;;;6128303;23;19905;-76
2021/10/24 12:05:57;;;;;;;;;;;16.50;99.90;;;;;;6127605;23;19905;-77
2021/10/24 12:08:38;;;;;;;;;;;16.40;99.90;;;;;;6128126;23;19905;-77
2021/10/24 12:11:05;;;;;;;;;;;16.30;99.90;;;;;;6129473;23;20392;-77
2021/10/24 12:13:35;;;;;;;;;;;16.40;99.90;;;;;;6130914;23;19961;-77
2021/10/24 12:16:02;;;;;;;;;;;16.50;99.90;;;;;;6134641;23;19928;-77
2021/10/24 12:18:28;;;;;;;;;;;16.60;99.90;;;;;;6107908;23;20234;-77
2021/10/24 12:20:55;;;;;;;;;;;16.60;99.90;;;;;;6132648;23;19905;-77
2021/10/24 12:23:21;;;;;;;;;;;16.60;99.90;;;;;;6126973;23;19933;-76
2021/10/24 12:25:50;;;;;;;;;;;16.70;99.90;;;;;;6127611;23;20314;-76
2021/10/24 12:28:26;;;;;;;;;;;16.70;99.90;;;;;;6126951;23;19904;-77
2021/10/24 12:30:59;;;;;;;;;;;16.70;99.90;;;;;;6129057;23;19955;-77
2021/10/24 12:33:36;;;;;;;;;;;16.70;99.90;;;;;;6128300;23;20000;-76
2021/10/24 12:36:06;;;;;;;;;;;16.60;99.90;;;;;;6102328;23;19913;-76
2021/10/24 12:38:51;;;;;;;;;;;16.40;99.90;;;;;;6126679;23;20384;-77
2021/10/24 12:41:31;;;;;;;;;;;16.20;99.90;;;;;;6126246;23;19905;-78
2021/10/24 12:43:57;;;;;;;;;;;16.30;99.90;;;;;;6126739;23;20015;-77
2021/10/24 12:46:26;;;;;;;;;;;16.40;99.90;;;;;;6125317;23;19905;-77
2021/10/24 12:48:52;;;;;;;;;;;16.20;99.90;;;;;;6099500;23;19905;-77
2021/10/24 12:51:24;;;;;;;;;;;16.30;99.90;;;;;;6101681;23;20005;-77
2021/10/24 12:53:51;;;;;;;;;;;16.30;99.90;;;;;;6127491;23;19916;-81
2021/10/24 12:56:16;;;;;;;;;;;16.30;99.90;;;;;;6126792;23;19905;-77
2021/10/24 12:58:42;;;;;;;;;;;16.20;99.90;;;;;;6127103;23;19905;-77
2021/10/24 13:01:18;;;;;;;;;;;16.10;99.90;;;;;;6127331;23;20179;-77
2021/10/24 13:03:43;;;;;;;;;;;16.20;99.90;;;;;;6100820;23;20369;-77
2021/10/24 13:06:09;;;;;;;;;;;16.20;99.90;;;;;;6127838;23;19913;-77
2021/10/24 13:08:35;;;;;;;;;;;16.30;99.90;;;;;;6102016;23;20338;-77
2021/10/24 13:11:00;;;;;;;;;;;16.30;99.90;;;;;;6100742;23;19915;-77
2021/10/24 13:13:26;;;;;;;;;;;16.30;99.90;;;;;;6125508;23;20326;-77
2021/10/24 13:15:51;;;;;;;;;;;16.30;99.90;;;;;;6101509;23;19905;-77
2021/10/24 13:18:17;;;;;;;;;;;16.40;99.90;;;;;;6102762;23;19936;-76
2021/10/24 13:20:44;;;;;;;;;;;16.30;99.90;;;;;;6101755;23;19944;-77
2021/10/24 13:23:10;;;;;;;;;;;16.20;99.90;;;;;;6108848;23;20001;-77
2021/10/24 13:25:36;;;;;;;;;;;16.20;99.90;;;;;;6137229;23;19909;-77
2021/10/24 13:28:02;;;;;;;;;;;16.20;99.90;;;;;;6102115;23;19905;-77
2021/10/24 13:30:28;;;;;;;;;;;16.40;99.90;;;;;;6134638;23;19909;-76
2021/10/24 13:32:54;;;;;;;;;;;16.30;99.90;;;;;;6132604;23;19905;-77
2021/10/24 13:35:21;;;;;;;;;;;16.30;99.90;;;;;;6130960;23;19939;-77
2021/10/24 13:37:46;;;;;;;;;;;16.40;99.90;;;;;;6128499;23;19905;-77
2021/10/24 13:40:12;;;;;;;;;;;16.30;99.90;;;;;;6129797;23;20284;-76
2021/10/24 13:42:38;;;;;;;;;;;16.30;99.90;;;;;;6109187;23;20313;-77
2021/10/24 13:45:05;;;;;;;;;;;16.30;99.90;;;;;;6132496;23;20273;-77
2021/10/24 13:47:31;;;;;;;;;;;16.30;99.90;;;;;;6131679;23;20337;-76
2021/10/24 13:49:56;;;;;;;;;;;16.30;99.90;;;;;;6134075;23;19909;-77
2021/10/24 13:52:22;;;;;;;;;;;16.40;99.90;;;;;;6133459;23;19904;-77
2021/10/24 13:54:48;;;;;;;;;;;16.30;99.90;;;;;;6107741;23;19915;-79
2021/10/24 13:57:14;;;;;;;;;;;16.40;99.90;;;;;;6133011;23;19909;-77
2021/10/24 13:59:40;;;;;;;;;;;16.30;99.90;;;;;;6133209;23;19932;-77
2021/10/24 14:02:06;;;;;;;;;;;16.30;99.90;;;;;;6133818;23;19914;-76
2021/10/24 14:04:35;;;;;;;;;;;16.30;99.90;;;;;;6131325;23;20457;-77
2021/10/24 14:07:01;;;;;;;;;;;16.20;99.90;;;;;;6133481;23;19984;-76
2021/10/24 14:09:26;;;;;;;;;;;16.20;99.90;;;;;;6129804;23;19905;-77
2021/10/24 14:11:52;;;;;;;;;;;16.10;99.90;;;;;;6128127;23;19905;-77
2021/10/24 14:14:18;;;;;;;;;;;16.20;99.90;;;;;;6133254;23;19913;-77
2021/10/24 14:16:44;;;;;;;;;;;16.20;99.90;;;;;;6110104;23;20144;-78
2021/10/24 14:19:09;;;;;;;;;;;16.10;99.90;;;;;;6134798;23;19916;-77